Janesville, Wisconsin
Current Conditions -  °F | °C
As of 10:45 AM on Friday 19 Dec 2014 (Local Time) from KJVL Reporting Station
Overcast Overcast  
Wind Chill: -2°   Ceiling: 1300
Heat Index: -2°   Visibility: 10mi
Dew Point: -6°   Wind: 0mph
Humidity: 74%   Direction: NA
Pressure: 30.31"   Gusts: NA
Location:  42.69°N, 89.02°W
Report Text: KJVL 191645Z 00000KT 10SM OVC013 M02/M06 A3031
Loading
Personal Weather Stations






























Interactive Weather Map New forecast layout! Learn more

10-Day Weather Forecast

Advertisements
Track Severe Weather on mobile